Time;durP1;ratioP1;P1;durP2;ratioP2;P2;SDS_P1;SDS_P2;PMS_P1;PMS_P2;Temp;Humidity;BMP_temperature;BMP_pressure;BME280_temperature;BME280_humidity;BME280_pressure;Samples;Min_cycle;Max_cycle;Signal;HPM_P1;HPM_P2
2021/12/07 00:01:18;;;;;;;;;;;;;;;0.99;87.44;97729.94;1759005;81;25084;-82
2021/12/07 00:03:45;;;;;;;;;;;;;;;0.94;87.41;97732.32;1750919;81;22087;-82
2021/12/07 00:06:13;;;;;;;;;;;;;;;0.90;87.37;97732.08;1748053;81;26839;-83
2021/12/07 00:08:42;;;;;;;;;;;;;;;0.82;87.31;97736.25;1750906;81;24423;-83
2021/12/07 00:11:12;;;;;;;;;;;;;;;0.80;87.27;97739.36;1743821;81;20227;-83
2021/12/07 00:13:39;;;;;;;;;;;;;;;0.75;87.24;97740.00;1753010;81;24926;-84
2021/12/07 00:16:12;;;;;;;;;;;;;;;0.68;87.19;97748.88;1752478;81;21968;-84
2021/12/07 00:18:48;;;;;;;;;;;;;;;0.65;87.14;97755.45;1756692;81;26703;-83
2021/12/07 00:21:11;;;;;;;;;;;;;;;0.62;87.13;97753.83;1749980;80;24639;-84
2021/12/07 00:23:37;;;;;;;;;;;;;;;0.64;87.10;97755.06;1753268;80;20252;-83
2021/12/07 00:26:05;;;;;;;;;;;;;;;0.67;87.12;97755.76;1753406;81;25178;-83
2021/12/07 00:28:31;;;;;;;;;;;;;;;0.65;87.12;97752.87;1756431;81;21988;-83
2021/12/07 00:31:08;;;;;;;;;;;;;;;0.61;87.11;97757.30;1755444;81;26034;-83
2021/12/07 00:35:54;;;;;;;;;;;;;;;0.59;87.12;97752.68;1756409;81;20441;-83
2021/12/07 00:38:21;;;;;;;;;;;;;;;0.57;87.12;97749.77;1751398;80;25017;-82
2021/12/07 00:40:53;;;;;;;;;;;;;;;0.53;87.10;97754.66;1750281;81;22056;-83
2021/12/07 00:43:20;;;;;;;;;;;;;;;0.47;87.09;97754.91;1747199;80;26257;-83
2021/12/07 00:45:49;;;;;;;;;;;;;;;0.48;87.08;97753.56;1749645;81;24542;-84
2021/12/07 00:48:16;;;;;;;;;;;;;;;0.49;87.08;97751.38;1750777;81;20304;-83
2021/12/07 00:50:44;;;;;;;;;;;;;;;0.52;87.10;97745.26;1754342;80;25162;-82
2021/12/07 00:53:10;;;;;;;;;;;;;;;0.58;87.12;97743.72;1746300;79;22056;-83
2021/12/07 00:55:38;;;;;;;;;;;;;;;0.60;87.16;97745.31;1757958;80;26012;-83
2021/12/07 00:58:16;;;;;;;;;;;;;;;0.66;87.20;97746.35;1751641;81;25212;-83
2021/12/07 01:00:33;;;;;;;;;;;;;;;0.67;87.21;97747.20;1764649;80;20303;-83
2021/12/07 01:03:00;;;;;;;;;;;;;;;0.73;87.27;97742.63;1759131;80;20382;-83
2021/12/07 01:05:30;;;;;;;;;;;;;;;0.83;87.33;97739.22;1758891;81;21950;-82
2021/12/07 01:08:26;;;;;;;;;;;;;;;0.90;87.38;97732.08;1753863;80;25993;-83
2021/12/07 01:26:54;;;;;;;;;;;;;;;0.99;87.57;97724.78;1766947;80;20495;-82
2021/12/07 01:29:23;;;;;;;;;;;;;;;1.05;87.57;97719.38;1755171;80;25038;-82
2021/12/07 01:32:08;;;;;;;;;;;;;;;1.07;87.56;97718.86;1755079;81;22057;-82
2021/12/07 01:34:52;;;;;;;;;;;;;;;1.02;87.53;97709.21;1749245;80;25993;-83
2021/12/07 01:37:24;;;;;;;;;;;;;;;1.04;87.53;97718.14;1751841;81;24484;-82
2021/12/07 01:39:56;;;;;;;;;;;;;;;1.02;87.50;97714.36;1741121;80;20240;-83
2021/12/07 01:45:18;;;;;;;;;;;;;;;1.10;87.47;97725.16;1753078;81;22215;-83
2021/12/07 02:00:33;;;;;;;;;;;;;;;1.02;87.36;97709.21;1783134;79;21592;-83
2021/12/07 02:02:59;;;;;;;;;;;;;;;1.04;87.34;97707.83;1750860;80;24485;-83
2021/12/07 02:05:25;;;;;;;;;;;;;;;1.02;87.32;97707.08;1752003;80;20163;-82
2021/12/07 02:07:54;;;;;;;;;;;;;;;1.03;87.31;97707.02;1737748;80;24953;-82
2021/12/07 02:10:25;;;;;;;;;;;;;;;1.05;87.29;97697.92;1770893;80;22755;-83
2021/12/07 02:12:51;;;;;;;;;;;;;;;0.99;87.27;97701.59;1754807;81;26266;-82
2021/12/07 02:15:18;;;;;;;;;;;;;;;1.01;87.25;97695.09;1757348;80;24770;-83
2021/12/07 02:17:47;;;;;;;;;;;;;;;0.99;87.25;97695.61;1754489;80;20314;-82
2021/12/07 02:20:14;;;;;;;;;;;;;;;0.94;87.22;97684.22;1754508;81;25015;-82
2021/12/07 02:22:40;;;;;;;;;;;;;;;0.92;87.18;97679.61;1751594;80;22021;-83
2021/12/07 02:25:10;;;;;;;;;;;;;;;0.90;87.17;97681.40;1754622;81;25954;-82
2021/12/07 02:27:38;;;;;;;;;;;;;;;0.89;87.14;97681.01;1752839;81;20245;-83
2021/12/07 02:30:06;;;;;;;;;;;;;;;0.87;87.09;97681.55;1761469;80;20338;-83
2021/12/07 02:32:32;;;;;;;;;;;;;;;0.87;87.08;97686.70;1736856;81;25043;-82
2021/12/07 02:34:59;;;;;;;;;;;;;;;0.90;87.06;97690.41;1738682;81;21826;-83
2021/12/07 02:37:30;;;;;;;;;;;;;;;0.95;87.06;97686.34;1750047;80;26043;-83
2021/12/07 02:39:57;;;;;;;;;;;;;;;0.96;87.03;97682.42;1752375;81;24517;-83
2021/12/07 02:42:25;;;;;;;;;;;;;;;0.98;87.03;97678.50;1749152;81;20494;-82
2021/12/07 02:44:52;;;;;;;;;;;;;;;0.99;87.04;97683.56;1747700;80;25036;-82
2021/12/07 02:47:18;;;;;;;;;;;;;;;0.90;87.03;97683.98;1751296;81;22004;-83
2021/12/07 02:49:47;;;;;;;;;;;;;;;0.86;86.99;97690.17;1745847;81;26790;-82
2021/12/07 02:52:13;;;;;;;;;;;;;;;0.82;86.94;97688.16;1670416;84;25240;-84
2021/12/07 02:54:44;;;;;;;;;;;;;;;0.65;86.85;97670.48;1741103;80;20584;-84
2021/12/07 02:57:09;;;;;;;;;;;;;;;0.68;86.81;97684.05;1751527;81;25009;-84
2021/12/07 02:59:37;;;;;;;;;;;;;;;0.67;86.77;97681.54;1749892;81;22141;-83
2021/12/07 03:02:08;;;;;;;;;;;;;;;0.60;86.74;97678.38;1735529;82;24011;-83
2021/12/07 03:04:38;;;;;;;;;;;;;;;0.52;86.69;97682.19;1742822;81;25227;-83
2021/12/07 03:26:10;;;;;;;;;;;;;;;0.50;86.67;97686.55;1734361;81;22226;-83
2021/12/07 03:28:38;;;;;;;;;;;;;;;0.49;86.66;97686.19;1739039;81;25979;-83
2021/12/07 03:31:04;;;;;;;;;;;;;;;0.48;86.67;97690.50;1745198;80;24332;-82
2021/12/07 03:33:30;;;;;;;;;;;;;;;0.51;86.71;97695.95;1747081;80;20337;-83
2021/12/07 03:35:56;;;;;;;;;;;;;;;0.54;86.73;97698.42;1735314;81;25037;-84
2021/12/07 03:38:24;;;;;;;;;;;;;;;0.59;86.78;97700.35;1715460;81;20276;-83
2021/12/07 03:40:50;;;;;;;;;;;;;;;0.62;86.82;97705.36;1736344;82;26243;-83
2021/12/07 03:43:17;;;;;;;;;;;;;;;0.69;86.87;97713.22;1746232;81;24841;-84
2021/12/07 03:45:43;;;;;;;;;;;;;;;0.74;86.91;97710.84;1749234;81;20472;-84
2021/12/07 03:48:10;;;;;;;;;;;;;;;0.83;86.96;97704.45;1750109;81;24856;-83
2021/12/07 03:50:36;;;;;;;;;;;;;;;0.84;87.00;97709.54;1746632;81;22095;-83
2021/12/07 03:53:02;;;;;;;;;;;;;;;0.87;87.03;97707.30;1732204;81;25997;-83
2021/12/07 03:55:28;;;;;;;;;;;;;;;0.88;87.03;97713.27;1737409;81;24552;-83
2021/12/07 03:57:55;;;;;;;;;;;;;;;0.86;87.04;97710.77;1742381;81;20593;-83
2021/12/07 04:00:22;;;;;;;;;;;;;;;0.85;87.05;97718.11;1741604;82;25010;-83
2021/12/07 04:02:50;;;;;;;;;;;;;;;0.86;87.04;97715.92;1748398;81;21985;-83
2021/12/07 04:05:19;;;;;;;;;;;;;;;0.88;87.05;97726.98;1741591;82;25993;-83
2021/12/07 04:07:45;;;;;;;;;;;;;;;0.87;87.06;97724.48;1736603;81;24518;-83
2021/12/07 04:10:13;;;;;;;;;;;;;;;0.84;87.04;97731.44;1736404;82;20256;-83
2021/12/07 04:12:39;;;;;;;;;;;;;;;0.86;87.02;97733.95;1742802;81;24995;-82
2021/12/07 04:15:07;;;;;;;;;;;;;;;0.85;87.00;97738.72;1743811;80;22033;-82
2021/12/07 04:17:33;;;;;;;;;;;;;;;0.80;86.99;97732.47;1739631;81;25987;-83
2021/12/07 04:19:59;;;;;;;;;;;;;;;0.81;86.97;97735.44;1734192;80;24414;-83
2021/12/07 04:22:25;;;;;;;;;;;;;;;0.78;86.94;97733.42;1738506;80;20313;-82
2021/12/07 04:24:51;;;;;;;;;;;;;;;0.79;86.91;97735.11;1733069;81;25064;-82
2021/12/07 04:27:20;;;;;;;;;;;;;;;0.82;86.89;97734.96;1742433;80;22004;-83
2021/12/07 04:29:47;;;;;;;;;;;;;;;0.84;86.90;97740.45;1681360;84;26058;-83
2021/12/07 04:32:14;;;;;;;;;;;;;;;0.86;86.91;97737.81;1691271;83;24518;-83
2021/12/07 04:34:40;;;;;;;;;;;;;;;0.87;86.90;97742.07;1675805;84;20216;-83
2021/12/07 04:37:06;;;;;;;;;;;;;;;0.90;86.93;97741.92;1683229;84;24812;-84
2021/12/07 04:39:32;;;;;;;;;;;;;;;0.94;86.95;97743.46;1724839;83;20275;-83
2021/12/07 04:41:58;;;;;;;;;;;;;;;0.93;86.97;97739.20;1708088;83;26183;-83
2021/12/07 04:44:28;;;;;;;;;;;;;;;0.97;86.98;97739.48;1705998;83;24467;-83
2021/12/07 04:47:10;;;;;;;;;;;;;;;0.96;87.00;97737.80;1724015;82;20981;-83
2021/12/07 04:57:49;;;;;;;;;;;;;;;1.01;86.92;97730.72;1658624;84;20238;-83
2021/12/07 05:00:22;;;;;;;;;;;;;;;1.04;86.93;97732.31;1697870;81;20938;-83
2021/12/07 05:03:01;;;;;;;;;;;;;;;0.99;86.86;97727.36;1755312;79;24990;-83
2021/12/07 05:05:25;;;;;;;;;;;;;;;0.91;86.80;97723.00;1753477;81;22192;-83
2021/12/07 05:07:53;;;;;;;;;;;;;;;0.88;86.75;97720.54;1747566;80;26297;-82
2021/12/07 05:10:31;;;;;;;;;;;;;;;0.84;86.71;97720.30;1751087;81;24558;-82
2021/12/07 05:37:42;;;;;;;;;;;;;;;0.62;86.35;97713.08;1756630;80;25829;-82
2021/12/07 05:40:04;;;;;;;;;;;;;;;0.83;86.39;97709.59;1755812;81;20224;-83
2021/12/07 05:42:37;;;;;;;;;;;;;;;0.82;86.39;97711.34;1758843;81;25789;-82
2021/12/07 05:45:04;;;;;;;;;;;;;;;0.83;86.41;97713.02;1747327;81;21956;-82
2021/12/07 05:47:32;;;;;;;;;;;;;;;0.92;86.45;97714.83;1748321;80;26628;-82
2021/12/07 05:49:58;;;;;;;;;;;;;;;0.95;86.46;97715.52;1767036;80;24474;-82
2021/12/07 05:52:25;;;;;;;;;;;;;;;0.97;86.43;97718.88;1756652;81;20258;-82
2021/12/07 05:54:52;;;;;;;;;;;;;;;0.98;86.43;97719.72;1752793;81;25007;-83
2021/12/07 05:57:18;;;;;;;;;;;;;;;1.03;86.43;97722.48;1745755;81;21974;-82
2021/12/07 05:59:51;;;;;;;;;;;;;;;1.00;86.41;97712.30;1749653;81;21304;-83
2021/12/07 06:02:14;;;;;;;;;;;;;;;0.96;86.38;97712.05;1754052;80;24594;-83
2021/12/07 06:04:41;;;;;;;;;;;;;;;0.94;86.34;97713.84;1753246;81;20565;-83
2021/12/07 06:07:09;;;;;;;;;;;;;;;0.96;86.32;97715.07;1752540;81;25187;-83
2021/12/07 06:09:35;;;;;;;;;;;;;;;0.98;86.31;97715.86;1751152;81;22126;-84
2021/12/07 06:12:04;;;;;;;;;;;;;;;0.98;86.27;97727.00;1758815;80;26014;-83
2021/12/07 06:14:35;;;;;;;;;;;;;;;0.98;86.26;97723.58;1750474;81;24548;-83
2021/12/07 06:16:58;;;;;;;;;;;;;;;0.98;86.22;97724.88;1741913;81;20581;-82
2021/12/07 06:19:25;;;;;;;;;;;;;;;0.95;86.21;97721.96;1756496;81;25028;-83
2021/12/07 06:21:53;;;;;;;;;;;;;;;0.95;86.18;97727.11;1754165;81;21983;-82
2021/12/07 06:24:22;;;;;;;;;;;;;;;0.92;86.14;97731.57;1753298;81;26084;-82
2021/12/07 06:26:57;;;;;;;;;;;;;;;0.80;86.08;97714.89;1755473;81;24641;-82
2021/12/07 06:29:22;;;;;;;;;;;;;;;0.89;86.06;97735.09;1749594;81;20236;-82
2021/12/07 06:31:49;;;;;;;;;;;;;;;0.83;86.02;97729.75;1756470;80;20517;-82
2021/12/07 06:34:17;;;;;;;;;;;;;;;0.81;86.00;97734.16;1746029;80;22008;-82
2021/12/07 06:36:45;;;;;;;;;;;;;;;0.90;86.02;97743.66;1746874;81;25467;-82
2021/12/07 06:39:12;;;;;;;;;;;;;;;0.93;86.02;97743.55;1755929;81;24455;-82
2021/12/07 06:41:38;;;;;;;;;;;;;;;0.94;86.02;97749.91;1753036;81;20227;-82
2021/12/07 06:44:08;;;;;;;;;;;;;;;0.95;86.02;97749.00;1756163;81;25036;-82
2021/12/07 06:46:34;;;;;;;;;;;;;;;0.94;86.02;97748.61;1753738;81;21873;-83
2021/12/07 06:49:00;;;;;;;;;;;;;;;0.90;86.00;97748.81;1751992;81;26330;-82
2021/12/07 06:51:28;;;;;;;;;;;;;;;0.88;86.00;97745.45;1754584;81;24595;-83
2021/12/07 06:53:54;;;;;;;;;;;;;;;0.94;86.01;97753.77;1755940;81;20266;-82
2021/12/07 06:56:28;;;;;;;;;;;;;;;0.92;86.00;97750.44;1752012;81;24903;-82
2021/12/07 06:58:54;;;;;;;;;;;;;;;0.92;85.99;97753.46;1738670;81;21838;-83
2021/12/07 07:01:21;;;;;;;;;;;;;;;0.90;85.96;97757.83;1751593;80;26072;-84
2021/12/07 07:03:47;;;;;;;;;;;;;;;0.91;85.95;97764.22;1749007;81;24505;-83
2021/12/07 07:06:16;;;;;;;;;;;;;;;0.94;85.95;97763.23;1753662;81;20245;-83
2021/12/07 07:08:42;;;;;;;;;;;;;;;0.90;85.92;97762.98;1756554;81;25044;-83
2021/12/07 07:11:08;;;;;;;;;;;;;;;0.91;85.93;97761.64;1750924;81;22071;-83
2021/12/07 07:13:34;;;;;;;;;;;;;;;0.95;85.93;97761.05;1754249;81;26010;-83
2021/12/07 07:16:03;;;;;;;;;;;;;;;0.97;85.95;97761.38;1749124;80;24658;-83
2021/12/07 07:18:34;;;;;;;;;;;;;;;0.93;85.92;97758.53;1749640;81;20235;-84
2021/12/07 07:20:56;;;;;;;;;;;;;;;0.93;85.93;97763.67;1755731;81;24942;-84
2021/12/07 07:23:23;;;;;;;;;;;;;;;0.90;85.94;97763.82;1750034;81;20270;-83
2021/12/07 07:25:50;;;;;;;;;;;;;;;0.92;85.94;97764.61;1752144;81;26794;-82
2021/12/07 07:28:16;;;;;;;;;;;;;;;0.90;85.91;97766.40;1753379;80;24507;-84
2021/12/07 07:30:42;;;;;;;;;;;;;;;0.85;85.92;97761.89;1758855;81;20879;-82
2021/12/07 07:33:08;;;;;;;;;;;;;;;0.87;85.89;97763.97;1749758;81;25097;-83
2021/12/07 07:35:34;;;;;;;;;;;;;;;0.89;85.89;97762.59;1749338;81;22013;-84
2021/12/07 07:38:02;;;;;;;;;;;;;;;0.90;85.92;97763.82;1752062;81;21641;-82
2021/12/07 07:40:28;;;;;;;;;;;;;;;0.94;85.93;97766.64;1748581;81;25502;-85
2021/12/07 07:42:57;;;;;;;;;;;;;;;0.90;85.95;97765.55;1752095;81;20554;-85
2021/12/07 07:45:23;;;;;;;;;;;;;;;0.95;85.94;97767.04;1746782;81;25427;-85
2021/12/07 07:47:49;;;;;;;;;;;;;;;1.00;85.97;97765.11;1748482;81;20403;-85
2021/12/07 07:50:16;;;;;;;;;;;;;;;1.00;85.98;97766.39;1755103;81;25976;-85
2021/12/07 07:52:44;;;;;;;;;;;;;;;1.00;86.00;97766.84;1756397;81;20197;-85
2021/12/07 07:55:11;;;;;;;;;;;;;;;0.98;86.00;97766.92;1747919;81;20330;-85
2021/12/07 07:57:37;;;;;;;;;;;;;;;1.02;86.00;97773.61;1754016;80;25211;-86
2021/12/07 08:00:05;;;;;;;;;;;;;;;1.01;86.01;97769.81;1755344;81;22809;-86
2021/12/07 08:02:32;;;;;;;;;;;;;;;1.04;86.04;97770.50;1750785;81;26180;-86
2021/12/07 08:04:58;;;;;;;;;;;;;;;1.08;86.05;97772.52;1755572;81;24469;-86
2021/12/07 08:07:24;;;;;;;;;;;;;;;1.11;86.06;97777.53;1754091;81;20175;-86
2021/12/07 08:09:50;;;;;;;;;;;;;;;1.08;86.06;97777.67;1754540;81;24943;-86
2021/12/07 08:12:18;;;;;;;;;;;;;;;1.04;86.05;97767.92;1754502;80;20306;-86
2021/12/07 08:14:44;;;;;;;;;;;;;;;1.07;86.05;97770.39;1737439;80;26053;-85
2021/12/07 08:17:10;;;;;;;;;;;;;;;1.09;86.06;97772.91;1760260;80;24599;-85
2021/12/07 08:19:37;;;;;;;;;;;;;;;1.15;86.06;97773.91;1737691;81;20188;-85
2021/12/07 08:22:03;;;;;;;;;;;;;;;1.14;86.07;97776.97;1751848;80;25033;-85
2021/12/07 08:24:30;;;;;;;;;;;;;;;1.14;86.05;97783.86;1756335;81;22090;-84
2021/12/07 08:26:56;;;;;;;;;;;;;;;1.22;86.07;97783.06;1758892;81;26012;-85
2021/12/07 08:29:23;;;;;;;;;;;;;;;1.21;86.09;97782.67;1752144;80;24486;-85
2021/12/07 08:31:49;;;;;;;;;;;;;;;1.24;86.10;97778.24;1754627;80;20476;-86
2021/12/07 08:34:15;;;;;;;;;;;;;;;1.22;86.09;97777.91;1746401;81;24917;-86
2021/12/07 08:36:41;;;;;;;;;;;;;;;1.23;86.10;97772.70;1748612;81;22006;-86
2021/12/07 08:39:08;;;;;;;;;;;;;;;1.23;86.09;97774.44;1747132;80;25970;-86
2021/12/07 08:41:41;;;;;;;;;;;;;;;1.20;86.07;97783.12;1753693;81;24568;-86
2021/12/07 08:44:05;;;;;;;;;;;;;;;1.24;86.06;97782.11;1754598;80;20274;-86
2021/12/07 08:46:31;;;;;;;;;;;;;;;1.23;86.05;97792.02;1752716;81;20237;-86
2021/12/07 08:48:57;;;;;;;;;;;;;;;1.25;86.03;97794.55;1745777;81;20266;-86
2021/12/07 08:51:24;;;;;;;;;;;;;;;1.29;86.03;97790.92;1780546;79;22017;-87
2021/12/07 08:53:57;;;;;;;;;;;;;;;1.28;86.01;97789.69;1750184;81;25277;-86
2021/12/07 09:01:51;;;;;;;;;;;;;;;1.30;86.02;97782.74;1748990;80;22223;-86
2021/12/07 09:04:19;;;;;;;;;;;;;;;1.34;86.02;97781.70;1744562;81;26044;-86
2021/12/07 09:06:45;;;;;;;;;;;;;;;1.31;85.99;97776.69;1748142;80;24511;-86
2021/12/07 09:09:13;;;;;;;;;;;;;;;1.25;85.96;97773.45;1754565;80;20477;-86
2021/12/07 09:11:39;;;;;;;;;;;;;;;1.30;85.96;97777.59;1735719;80;25015;-86
2021/12/07 09:14:05;;;;;;;;;;;;;;;1.30;85.98;97778.88;1769567;80;22250;-87
2021/12/07 09:16:31;;;;;;;;;;;;;;;1.28;85.97;97778.94;1754563;81;25957;-87
2021/12/07 09:18:58;;;;;;;;;;;;;;;1.31;85.95;97778.79;1753194;81;24391;-87
2021/12/07 09:21:24;;;;;;;;;;;;;;;1.34;85.99;97785.56;1754249;80;20237;-87
2021/12/07 09:23:52;;;;;;;;;;;;;;;1.35;85.99;97781.64;1752788;81;24436;-87
2021/12/07 09:26:18;;;;;;;;;;;;;;;1.34;85.97;97782.54;1755106;81;20218;-87
2021/12/07 09:28:46;;;;;;;;;;;;;;;1.35;85.94;97784.67;1752040;81;21789;-87
2021/12/07 09:31:13;;;;;;;;;;;;;;;1.34;85.97;97782.98;1751993;80;25546;-85
2021/12/07 09:33:41;;;;;;;;;;;;;;;1.40;85.99;97784.86;1756325;81;20301;-85
2021/12/07 09:36:08;;;;;;;;;;;;;;;1.44;85.98;97786.84;1743736;81;24954;-85
2021/12/07 09:38:34;;;;;;;;;;;;;;;1.44;85.99;97782.52;1755005;81;22216;-85
2021/12/07 09:41:02;;;;;;;;;;;;;;;1.45;85.99;97776.47;1743435;81;25873;-86
2021/12/07 09:43:28;;;;;;;;;;;;;;;1.47;86.01;97775.12;1728816;80;24551;-86
2021/12/07 09:45:54;;;;;;;;;;;;;;;1.50;86.00;97766.78;1753676;80;20152;-86
2021/12/07 09:48:24;;;;;;;;;;;;;;;1.54;86.01;97768.31;1754848;81;25652;-86
2021/12/07 09:50:51;;;;;;;;;;;;;;;1.54;86.02;97764.89;1769625;79;22132;-86
2021/12/07 09:53:18;;;;;;;;;;;;;;;1.52;86.02;97767.56;1747688;81;26038;-85
2021/12/07 09:55:45;;;;;;;;;;;;;;;1.57;86.03;97769.48;1754033;81;25252;-86
2021/12/07 09:58:11;;;;;;;;;;;;;;;1.56;86.02;97761.36;1745115;81;20572;-85
2021/12/07 10:00:38;;;;;;;;;;;;;;;1.60;86.04;97758.18;1748396;80;25455;-86
2021/12/07 10:03:04;;;;;;;;;;;;;;;1.64;86.05;97756.68;1754583;81;22095;-85
2021/12/07 10:05:31;;;;;;;;;;;;;;;1.64;86.05;97754.55;1751913;81;26016;-85
2021/12/07 10:07:58;;;;;;;;;;;;;;;1.65;86.05;97752.36;1773151;79;25273;-85
2021/12/07 10:10:28;;;;;;;;;;;;;;;1.64;86.04;97753.26;1754819;80;20250;-85
2021/12/07 10:12:55;;;;;;;;;;;;;;;1.65;86.02;97748.48;1744995;81;25872;-85
2021/12/07 10:15:21;;;;;;;;;;;;;;;1.63;86.01;97747.74;1748765;81;22113;-85
2021/12/07 10:18:05;;;;;;;;;;;;;;;1.59;85.97;97748.31;1750346;81;26017;-85
2021/12/07 10:20:38;;;;;;;;;;;;;;;1.60;85.95;97749.16;1746787;81;24465;-85
2021/12/07 10:23:02;;;;;;;;;;;;;;;1.53;85.93;97754.19;1748811;80;20486;-85
2021/12/07 10:25:28;;;;;;;;;;;;;;;1.59;85.91;97752.63;1739015;82;25135;-85
2021/12/07 10:27:56;;;;;;;;;;;;;;;1.63;85.88;97758.06;1734855;81;22635;-86
2021/12/07 10:30:23;;;;;;;;;;;;;;;1.64;85.91;97763.58;1734467;81;26723;-85
2021/12/07 10:33:00;;;;;;;;;;;;;;;1.60;85.89;97762.05;1731590;81;23942;-85
2021/12/07 10:35:31;;;;;;;;;;;;;;;1.57;85.90;97763.48;1721697;81;20744;-85
2021/12/07 10:38:08;;;;;;;;;;;;;;;1.57;85.89;97759.63;1732662;81;25008;-85
2021/12/07 10:40:34;;;;;;;;;;;;;;;1.58;85.89;97764.69;1737146;81;22069;-86
2021/12/07 10:43:04;;;;;;;;;;;;;;;1.55;85.87;97760.97;1742417;81;21815;-86
2021/12/07 10:45:34;;;;;;;;;;;;;;;1.61;85.89;97773.59;1748197;81;24465;-85
2021/12/07 10:47:58;;;;;;;;;;;;;;;1.66;85.89;97772.09;1737284;81;20534;-85
2021/12/07 10:50:24;;;;;;;;;;;;;;;1.61;85.91;97765.02;1746628;80;24982;-85
2021/12/07 10:52:57;;;;;;;;;;;;;;;1.60;85.93;97766.75;1760095;80;21958;-85
2021/12/07 10:55:26;;;;;;;;;;;;;;;1.65;85.94;97771.25;1758031;80;26102;-85
2021/12/07 10:57:54;;;;;;;;;;;;;;;1.69;85.94;97771.48;1758024;80;23783;-85
2021/12/07 11:00:31;;;;;;;;;;;;;;;1.77;85.98;97763.87;1758846;81;20258;-85
2021/12/07 11:03:01;;;;;;;;;;;;;;;1.68;85.98;97765.13;1758971;80;25033;-85
2021/12/07 11:05:35;;;;;;;;;;;;;;;1.61;85.96;97765.02;1754973;81;22145;-85
2021/12/07 11:08:02;;;;;;;;;;;;;;;1.63;85.95;97765.80;1754205;80;26081;-85
2021/12/07 11:10:34;;;;;;;;;;;;;;;1.66;85.94;97763.06;1749823;80;25318;-85
2021/12/07 11:13:19;;;;;;;;;;;;;;;1.66;85.95;97761.33;1755920;81;20220;-85
2021/12/07 11:15:49;;;;;;;;;;;;;;;1.66;85.96;97766.48;1758797;81;24838;-85
2021/12/07 11:18:11;;;;;;;;;;;;;;;1.73;85.99;97771.38;1757538;81;22211;-85
2021/12/07 11:20:38;;;;;;;;;;;;;;;1.68;85.99;97768.55;1753212;81;26645;-85
2021/12/07 11:23:12;;;;;;;;;;;;;;;1.71;86.01;97774.02;1750385;81;24409;-85
2021/12/07 11:31:11;;;;;;;;;;;;;;;1.89;86.07;97774.92;1744145;81;22216;-85
2021/12/07 11:33:37;;;;;;;;;;;;;;;1.89;86.07;97768.03;1740027;81;26073;-85
2021/12/07 11:36:20;;;;;;;;;;;;;;;1.87;86.10;97758.22;1741443;81;24453;-85
2021/12/07 11:38:46;;;;;;;;;;;;;;;1.83;86.07;97758.44;1741228;81;20278;-85
2021/12/07 11:41:22;;;;;;;;;;;;;;;1.79;86.06;97761.62;1736161;81;25308;-85
2021/12/07 11:43:49;;;;;;;;;;;;;;;1.87;86.07;97763.83;1745658;81;22026;-85
2021/12/07 11:46:20;;;;;;;;;;;;;;;1.89;86.07;97760.73;1733036;81;26694;-85
2021/12/07 11:48:48;;;;;;;;;;;;;;;1.92;86.07;97760.13;1737118;81;24541;-85
2021/12/07 11:51:14;;;;;;;;;;;;;;;1.96;86.08;97753.95;1721109;82;20235;-85
2021/12/07 11:53:41;;;;;;;;;;;;;;;2.02;86.10;97758.80;1738695;81;25223;-85
2021/12/07 11:56:07;;;;;;;;;;;;;;;2.09;86.14;97765.35;1737365;81;22103;-85
2021/12/07 11:58:33;;;;;;;;;;;;;;;2.12;86.15;97759.23;1739068;81;26039;-85
2021/12/07 12:01:08;;;;;;;;;;;;;;;2.11;86.17;97761.42;1738838;82;25223;-85
2021/12/07 12:03:30;;;;;;;;;;;;;;;2.14;86.16;97766.42;1739104;82;20218;-85
2021/12/07 12:05:56;;;;;;;;;;;;;;;2.19;86.16;97770.07;1729428;82;25598;-85
2021/12/07 12:08:25;;;;;;;;;;;;;;;2.18;86.15;97764.55;1738935;80;22048;-85
2021/12/07 12:10:57;;;;;;;;;;;;;;;2.13;86.11;97770.39;1746042;81;26062;-85
2021/12/07 12:13:40;;;;;;;;;;;;;;;2.06;86.08;97773.25;1747210;80;25288;-85
2021/12/07 12:16:13;;;;;;;;;;;;;;;2.08;86.05;97777.03;1746252;81;20823;-85
2021/12/07 12:18:50;;;;;;;;;;;;;;;2.10;86.02;97775.22;1743023;81;25030;-85
2021/12/07 12:21:21;;;;;;;;;;;;;;;2.01;85.97;97776.95;1685281;83;22054;-85
2021/12/07 12:24:01;;;;;;;;;;;;;;;1.92;85.91;97778.64;1737369;81;26803;-85
2021/12/07 12:26:29;;;;;;;;;;;;;;;1.88;85.87;97780.53;1744100;80;21460;-85
2021/12/07 12:28:56;;;;;;;;;;;;;;;1.96;85.85;97777.17;1722283;81;20302;-85
2021/12/07 12:31:43;;;;;;;;;;;;;;;1.90;85.81;97776.16;1734754;82;24982;-85
2021/12/07 12:34:16;;;;;;;;;;;;;;;1.92;85.79;97774.32;1739172;80;22126;-85
2021/12/07 12:36:44;;;;;;;;;;;;;;;1.91;85.76;97773.13;1729813;80;25975;-85
2021/12/07 12:39:10;;;;;;;;;;;;;;;1.84;85.75;97756.24;1708533;81;24570;-86
2021/12/07 12:41:36;;;;;;;;;;;;;;;1.89;85.79;97773.19;1718753;82;20289;-84
2021/12/07 12:44:07;;;;;;;;;;;;;;;1.91;85.77;97779.58;1721692;82;25119;-85
2021/12/07 12:46:34;;;;;;;;;;;;;;;1.88;85.76;97777.95;1739684;81;22696;-85
2021/12/07 12:49:01;;;;;;;;;;;;;;;1.87;85.78;97778.86;1740319;81;26173;-85
2021/12/07 12:51:32;;;;;;;;;;;;;;;1.91;85.78;97784.73;1735777;82;24426;-85
2021/12/07 12:53:59;;;;;;;;;;;;;;;1.96;85.80;97783.62;1730239;82;20284;-85
2021/12/07 12:56:29;;;;;;;;;;;;;;;1.99;85.81;97793.78;1737475;81;25049;-85
2021/12/07 12:58:57;;;;;;;;;;;;;;;1.91;85.81;97792.48;1736121;81;22192;-85
2021/12/07 13:01:31;;;;;;;;;;;;;;;1.85;85.78;97790.17;1734376;80;26113;-85
2021/12/07 13:03:59;;;;;;;;;;;;;;;1.83;85.75;97789.39;1735632;81;24518;-85
2021/12/07 13:06:34;;;;;;;;;;;;;;;1.80;85.74;97791.64;1747760;80;20285;-85
2021/12/07 13:09:01;;;;;;;;;;;;;;;1.76;85.70;97799.14;1739166;81;25803;-85
2021/12/07 13:11:41;;;;;;;;;;;;;;;1.72;85.66;97801.93;1747591;81;21999;-85
2021/12/07 13:14:09;;;;;;;;;;;;;;;1.77;85.66;97809.84;1743501;80;26141;-86
2021/12/07 13:16:39;;;;;;;;;;;;;;;1.73;85.62;97813.92;1721774;81;20555;-85
2021/12/07 13:19:07;;;;;;;;;;;;;;;1.74;85.62;97812.58;1735882;80;20606;-86
2021/12/07 13:21:40;;;;;;;;;;;;;;;1.79;85.62;97813.66;1739130;81;25658;-85
2021/12/07 13:24:10;;;;;;;;;;;;;;;1.80;85.65;97820.02;1738971;80;22124;-85
2021/12/07 13:26:41;;;;;;;;;;;;;;;1.76;85.66;97815.06;1740223;81;26012;-85
2021/12/07 13:29:09;;;;;;;;;;;;;;;1.70;85.64;97814.88;1740580;81;24622;-85
2021/12/07 13:31:36;;;;;;;;;;;;;;;1.76;85.63;97822.35;1725546;82;20217;-85
2021/12/07 13:34:03;;;;;;;;;;;;;;;1.81;85.65;97819.11;1738829;81;25716;-85
2021/12/07 13:36:48;;;;;;;;;;;;;;;1.83;85.64;97816.48;1727520;81;21877;-85
2021/12/07 13:39:18;;;;;;;;;;;;;;;1.79;85.64;97812.37;1744988;81;26018;-85
2021/12/07 13:41:49;;;;;;;;;;;;;;;1.77;85.62;97819.33;1744661;82;25407;-85
2021/12/07 13:44:17;;;;;;;;;;;;;;;1.66;85.60;97821.09;1741403;81;20174;-85
2021/12/07 13:46:44;;;;;;;;;;;;;;;1.51;85.56;97824.34;1740028;81;24952;-85
2021/12/07 13:49:11;;;;;;;;;;;;;;;1.46;85.53;97816.81;1730435;81;20235;-85
2021/12/07 13:51:38;;;;;;;;;;;;;;;1.47;85.51;97819.78;1739147;82;26074;-85
2021/12/07 13:54:05;;;;;;;;;;;;;;;1.37;85.49;97822.80;1741330;81;24258;-85
2021/12/07 13:56:35;;;;;;;;;;;;;;;1.39;85.48;97828.73;1744751;81;20330;-85
2021/12/07 13:59:03;;;;;;;;;;;;;;;1.39;85.49;97827.45;1750176;80;24980;-85
2021/12/07 14:01:36;;;;;;;;;;;;;;;1.39;85.52;97826.16;1740276;81;22074;-85
2021/12/07 14:04:03;;;;;;;;;;;;;;;1.37;85.54;97824.92;1745730;80;26161;-85
2021/12/07 14:06:29;;;;;;;;;;;;;;;1.42;85.60;97830.72;1743678;79;24454;-85
2021/12/07 14:09:09;;;;;;;;;;;;;;;1.41;85.63;97832.94;1726696;81;20309;-85
2021/12/07 14:11:36;;;;;;;;;;;;;;;1.40;85.64;97836.86;1740325;81;25106;-85
2021/12/07 14:14:04;;;;;;;;;;;;;;;1.37;85.66;97835.69;1735537;81;21981;-85
2021/12/07 14:16:30;;;;;;;;;;;;;;;1.35;85.69;97836.22;1713192;82;25935;-85
2021/12/07 14:18:58;;;;;;;;;;;;;;;1.25;85.68;97837.07;1740196;81;24444;-85
2021/12/07 14:21:24;;;;;;;;;;;;;;;1.18;85.68;97844.21;1727824;82;20589;-85
2021/12/07 14:23:54;;;;;;;;;;;;;;;1.19;85.70;97845.05;1739518;80;20238;-85
2021/12/07 14:26:21;;;;;;;;;;;;;;;1.10;85.69;97851.41;1735802;81;22120;-85
2021/12/07 14:28:49;;;;;;;;;;;;;;;1.11;85.69;97856.11;1739398;81;26792;-85
2021/12/07 14:31:16;;;;;;;;;;;;;;;1.11;85.71;97850.96;1746546;81;25251;-85
2021/12/07 14:33:44;;;;;;;;;;;;;;;1.07;85.73;97858.44;1740439;81;20231;-85
2021/12/07 14:36:11;;;;;;;;;;;;;;;1.04;85.73;97855.97;1745928;81;25075;-85
2021/12/07 14:38:37;;;;;;;;;;;;;;;1.05;85.77;97848.19;1740541;81;21973;-85
2021/12/07 14:41:05;;;;;;;;;;;;;;;1.09;85.83;97852.78;1736251;81;25279;-85